Terminal Aerodrome Forecast
Issued by NWS

Home | Current Version | Previous Version | Graphics & Text | Print | Product List | Glossary On
Versions: 1 2 3 4 5 6 7 8 9 10 11 12 13 14 15 16 17
000
FTUS43 KICT 211100 RRA
TAFHUT
TAF
KHUT 211142Z 2112/2212 00000KT 3SM BR SCT005 OVC090
      TEMPO 2112/2114 5SM BR BKN008
     FM211400 34005KT P6SM BKN015
     FM211700 36007KT P6SM BKN040
     FM212000 36007KT P6SM BKN070=

USA.gov is the U.S. government's official web portal to all federal, state and local government web resources and services.